sensor_id;sensor_type;location;lat;lon;timestamp;pressure;altitude;pressure_sealevel;temperature;humidity
21203;BME280;10759;51.982;9.232;2023-04-04T00:02:29;101781.53;;;0.52;86.14
21203;BME280;10759;51.982;9.232;2023-04-04T00:04:57;101780.19;;;0.70;85.81
21203;BME280;10759;51.982;9.232;2023-04-04T00:07:26;101761.19;;;0.48;86.29
21203;BME280;10759;51.982;9.232;2023-04-04T00:09:54;101649.50;;;-0.24;86.67
21203;BME280;10759;51.982;9.232;2023-04-04T00:12:22;101779.84;;;0.56;87.01
21203;BME280;10759;51.982;9.232;2023-04-04T00:14:54;101756.47;;;0.35;87.17
21203;BME280;10759;51.982;9.232;2023-04-04T00:17:23;101779.81;;;0.54;86.95
21203;BME280;10759;51.982;9.232;2023-04-04T00:19:51;101768.28;;;0.51;86.53
21203;BME280;10759;51.982;9.232;2023-04-04T00:22:19;101776.25;;;0.52;85.86
21203;BME280;10759;51.982;9.232;2023-04-04T00:24:48;101779.81;;;0.54;85.69
21203;BME280;10759;51.982;9.232;2023-04-04T00:27:16;101778.84;;;0.51;85.79
21203;BME280;10759;51.982;9.232;2023-04-04T00:29:44;101784.84;;;0.45;85.93
21203;BME280;10759;51.982;9.232;2023-04-04T00:32:12;101785.75;;;0.46;85.62
21203;BME280;10759;51.982;9.232;2023-04-04T00:34:40;101777.78;;;0.44;85.75
21203;BME280;10759;51.982;9.232;2023-04-04T00:37:08;101775.97;;;0.41;86.12
21203;BME280;10759;51.982;9.232;2023-04-04T00:39:39;101777.88;;;0.47;86.29
21203;BME280;10759;51.982;9.232;2023-04-04T00:42:08;101754.16;;;0.14;86.33
21203;BME280;10759;51.982;9.232;2023-04-04T00:44:36;101779.88;;;0.23;86.28
21203;BME280;10759;51.982;9.232;2023-04-04T00:47:04;101780.09;;;0.32;85.87
21203;BME280;10759;51.982;9.232;2023-04-04T00:49:32;101774.88;;;0.33;84.96
21203;BME280;10759;51.982;9.232;2023-04-04T00:52:00;101745.78;;;-0.03;85.62
21203;BME280;10759;51.982;9.232;2023-04-04T00:54:28;101781.41;;;0.14;86.15
21203;BME280;10759;51.982;9.232;2023-04-04T00:56:57;101746.44;;;-0.12;86.19
21203;BME280;10759;51.982;9.232;2023-04-04T00:59:26;101720.03;;;-0.13;86.40
21203;BME280;10759;51.982;9.232;2023-04-04T01:01:55;101747.03;;;-0.22;86.25
21203;BME280;10759;51.982;9.232;2023-04-04T01:04:23;101774.63;;;-0.09;86.93
21203;BME280;10759;51.982;9.232;2023-04-04T01:06:52;101769.00;;;-0.22;86.81
21203;BME280;10759;51.982;9.232;2023-04-04T01:09:20;101638.97;;;-0.87;86.33
21203;BME280;10759;51.982;9.232;2023-04-04T01:11:49;101762.53;;;-0.01;87.08
21203;BME280;10759;51.982;9.232;2023-04-04T01:14:17;101772.94;;;-0.07;87.47
21203;BME280;10759;51.982;9.232;2023-04-04T01:16:47;101735.00;;;-0.44;88.09
21203;BME280;10759;51.982;9.232;2023-04-04T01:19:31;101739.69;;;-0.34;87.37
21203;BME280;10759;51.982;9.232;2023-04-04T01:22:05;101766.72;;;-0.09;87.17
21203;BME280;10759;51.982;9.232;2023-04-04T01:24:33;101650.38;;;-0.87;87.41
21203;BME280;10759;51.982;9.232;2023-04-04T01:27:05;101762.06;;;-0.19;87.69
21203;BME280;10759;51.982;9.232;2023-04-04T01:29:39;101777.22;;;-0.11;87.42
21203;BME280;10759;51.982;9.232;2023-04-04T01:32:12;101750.81;;;-0.44;88.26
21203;BME280;10759;51.982;9.232;2023-04-04T01:34:46;101736.63;;;-0.49;88.48
21203;BME280;10759;51.982;9.232;2023-04-04T01:37:25;101763.88;;;-0.47;88.42
21203;BME280;10759;51.982;9.232;2023-04-04T01:40:00;101762.59;;;-0.61;88.44
21203;BME280;10759;51.982;9.232;2023-04-04T01:42:35;101728.97;;;-1.00;89.04
21203;BME280;10759;51.982;9.232;2023-04-04T01:45:06;101612.81;;;-1.41;89.70
21203;BME280;10759;51.982;9.232;2023-04-04T01:47:39;101760.44;;;-0.45;89.22
21203;BME280;10759;51.982;9.232;2023-04-04T01:50:11;101747.31;;;-0.43;88.51
21203;BME280;10759;51.982;9.232;2023-04-04T01:52:39;101724.28;;;-0.50;88.04
21203;BME280;10759;51.982;9.232;2023-04-04T01:55:08;101731.50;;;-0.43;87.93
21203;BME280;10759;51.982;9.232;2023-04-04T01:57:37;101751.91;;;-0.36;88.19
21203;BME280;10759;51.982;9.232;2023-04-04T02:00:08;101757.19;;;-0.36;88.00
21203;BME280;10759;51.982;9.232;2023-04-04T02:02:42;101752.84;;;-0.34;88.66
21203;BME280;10759;51.982;9.232;2023-04-04T02:05:11;101750.16;;;-0.35;88.78
21203;BME280;10759;51.982;9.232;2023-04-04T02:07:39;101643.88;;;-0.99;88.83
21203;BME280;10759;51.982;9.232;2023-04-04T02:10:19;101753.59;;;-0.38;89.24
21203;BME280;10759;51.982;9.232;2023-04-04T02:12:51;101644.75;;;-0.99;88.43
21203;BME280;10759;51.982;9.232;2023-04-04T02:15:21;101755.44;;;-0.35;88.40
21203;BME280;10759;51.982;9.232;2023-04-04T02:17:49;101747.31;;;-0.43;87.68
21203;BME280;10759;51.982;9.232;2023-04-04T02:20:18;101748.41;;;-0.35;88.71
21203;BME280;10759;51.982;9.232;2023-04-04T02:22:50;101744.88;;;-0.37;88.19
21203;BME280;10759;51.982;9.232;2023-04-04T02:25:20;101742.94;;;-0.43;88.41
21203;BME280;10759;51.982;9.232;2023-04-04T02:27:49;101742.94;;;-0.43;88.64
21203;BME280;10759;51.982;9.232;2023-04-04T02:30:22;101740.50;;;-0.03;87.27
21203;BME280;10759;51.982;9.232;2023-04-04T02:32:50;101730.16;;;-0.29;87.81
21203;BME280;10759;51.982;9.232;2023-04-04T02:35:19;101715.78;;;-0.40;88.05
21203;BME280;10759;51.982;9.232;2023-04-04T02:37:49;101695.41;;;-0.77;87.76
21203;BME280;10759;51.982;9.232;2023-04-04T02:40:26;101648.88;;;-1.09;88.34
21203;BME280;10759;51.982;9.232;2023-04-04T02:42:56;101724.78;;;-0.63;88.98
21203;BME280;10759;51.982;9.232;2023-04-04T02:45:24;101727.66;;;-0.56;89.71
21203;BME280;10759;51.982;9.232;2023-04-04T02:48:01;101720.31;;;-0.66;89.67
21203;BME280;10759;51.982;9.232;2023-04-04T02:50:37;101710.00;;;-0.58;89.50
21203;BME280;10759;51.982;9.232;2023-04-04T02:53:07;101721.78;;;-0.46;89.01
21203;BME280;10759;51.982;9.232;2023-04-04T02:55:36;101699.41;;;-0.61;89.20
21203;BME280;10759;51.982;9.232;2023-04-04T02:58:06;101714.84;;;-0.42;89.20
21203;BME280;10759;51.982;9.232;2023-04-04T03:00:34;101713.66;;;-0.53;89.13
21203;BME280;10759;51.982;9.232;2023-04-04T03:03:02;101702.47;;;-0.46;88.43
21203;BME280;10759;51.982;9.232;2023-04-04T03:05:35;101719.44;;;-0.35;88.53
21203;BME280;10759;51.982;9.232;2023-04-04T03:08:04;101713.00;;;-0.46;88.75
21203;BME280;10759;51.982;9.232;2023-04-04T03:10:31;101710.63;;;-0.67;88.42
21203;BME280;10759;51.982;9.232;2023-04-04T03:12:59;101635.31;;;-1.22;90.24
21203;BME280;10759;51.982;9.232;2023-04-04T03:15:31;101699.66;;;-1.11;90.41
21203;BME280;10759;51.982;9.232;2023-04-04T03:18:00;101682.31;;;-1.04;90.60
21203;BME280;10759;51.982;9.232;2023-04-04T03:20:30;101685.63;;;-1.12;90.76
21203;BME280;10759;51.982;9.232;2023-04-04T03:22:58;101697.09;;;-1.10;90.77
21203;BME280;10759;51.982;9.232;2023-04-04T03:25:26;101677.94;;;-1.04;90.47
21203;BME280;10759;51.982;9.232;2023-04-04T03:27:54;101676.69;;;-1.17;90.82
21203;BME280;10759;51.982;9.232;2023-04-04T03:30:24;101682.91;;;-1.15;91.65
21203;BME280;10759;51.982;9.232;2023-04-04T03:32:54;101682.03;;;-1.14;91.40
21203;BME280;10759;51.982;9.232;2023-04-04T03:35:22;101681.94;;;-1.17;91.30
21203;BME280;10759;51.982;9.232;2023-04-04T03:37:51;101670.06;;;-1.04;90.86
21203;BME280;10759;51.982;9.232;2023-04-04T03:40:20;101681.47;;;-1.03;91.09
21203;BME280;10759;51.982;9.232;2023-04-04T03:42:48;101681.72;;;-0.96;90.96
21203;BME280;10759;51.982;9.232;2023-04-04T03:45:18;101672.00;;;-0.98;90.35
21203;BME280;10759;51.982;9.232;2023-04-04T03:47:46;101683.50;;;-0.95;90.81
21203;BME280;10759;51.982;9.232;2023-04-04T03:50:16;101651.31;;;-1.15;90.91
21203;BME280;10759;51.982;9.232;2023-04-04T03:52:50;101591.50;;;-1.51;90.78
21203;BME280;10759;51.982;9.232;2023-04-04T03:55:18;101677.06;;;-1.04;90.71
21203;BME280;10759;51.982;9.232;2023-04-04T03:57:45;101671.22;;;-0.94;90.34
21203;BME280;10759;51.982;9.232;2023-04-04T04:00:15;101677.44;;;-0.92;90.32
21203;BME280;10759;51.982;9.232;2023-04-04T04:02:43;101678.53;;;-0.84;89.98
21203;BME280;10759;51.982;9.232;2023-04-04T04:05:12;101663.31;;;-0.94;89.78
21203;BME280;10759;51.982;9.232;2023-04-04T04:07:43;101597.41;;;-1.29;90.23
21203;BME280;10759;51.982;9.232;2023-04-04T04:10:11;101679.47;;;-0.82;90.37
21203;BME280;10759;51.982;9.232;2023-04-04T04:12:40;101678.47;;;-0.87;90.03
21203;BME280;10759;51.982;9.232;2023-04-04T04:15:09;101671.88;;;-1.01;90.45
21203;BME280;10759;51.982;9.232;2023-04-04T04:17:39;101667.44;;;-1.04;90.19
21203;BME280;10759;51.982;9.232;2023-04-04T04:20:09;101665.94;;;-1.24;90.97
21203;BME280;10759;51.982;9.232;2023-04-04T04:22:46;101671.44;;;-1.17;91.91
21203;BME280;10759;51.982;9.232;2023-04-04T04:25:15;101670.19;;;-1.28;90.86
21203;BME280;10759;51.982;9.232;2023-04-04T04:27:54;101667.56;;;-1.28;91.22
21203;BME280;10759;51.982;9.232;2023-04-04T04:30:24;101672.81;;;-1.30;92.11
21203;BME280;10759;51.982;9.232;2023-04-04T04:32:52;101670.56;;;-1.16;91.30
21203;BME280;10759;51.982;9.232;2023-04-04T04:35:25;101675.19;;;-1.09;91.98
21203;BME280;10759;51.982;9.232;2023-04-04T04:37:55;101669.25;;;-1.01;91.14
21203;BME280;10759;51.982;9.232;2023-04-04T04:40:23;101665.66;;;-1.05;91.01
21203;BME280;10759;51.982;9.232;2023-04-04T04:43:03;101663.84;;;-1.06;90.94
21203;BME280;10759;51.982;9.232;2023-04-04T04:45:31;101666.91;;;-0.92;90.80
21203;BME280;10759;51.982;9.232;2023-04-04T04:48:05;101658.50;;;-1.09;91.13
21203;BME280;10759;51.982;9.232;2023-04-04T04:50:42;101675.69;;;-0.92;90.94
21203;BME280;10759;51.982;9.232;2023-04-04T04:53:12;101555.34;;;-1.58;90.66
21203;BME280;10759;51.982;9.232;2023-04-04T04:55:40;101675.66;;;-0.93;91.26
21203;BME280;10759;51.982;9.232;2023-04-04T04:58:09;101673.69;;;-1.00;91.19
21203;BME280;10759;51.982;9.232;2023-04-04T05:00:42;101665.81;;;-0.99;91.32
21203;BME280;10759;51.982;9.232;2023-04-04T05:03:11;101632.53;;;-1.27;91.92
21203;BME280;10759;51.982;9.232;2023-04-04T05:05:45;101659.88;;;-0.93;91.23
21203;BME280;10759;51.982;9.232;2023-04-04T05:08:15;101654.78;;;-1.16;91.05
21203;BME280;10759;51.982;9.232;2023-04-04T05:11:07;101664.94;;;-1.28;92.11
21203;BME280;10759;51.982;9.232;2023-04-04T05:13:35;101666.13;;;-1.47;92.41
21203;BME280;10759;51.982;9.232;2023-04-04T05:16:04;101675.19;;;-1.37;92.49
21203;BME280;10759;51.982;9.232;2023-04-04T05:18:34;101677.91;;;-1.34;91.89
21203;BME280;10759;51.982;9.232;2023-04-04T05:21:07;101674.63;;;-1.27;92.00
21203;BME280;10759;51.982;9.232;2023-04-04T05:23:36;101660.31;;;-1.37;91.71
21203;BME280;10759;51.982;9.232;2023-04-04T05:26:05;101685.31;;;-1.21;92.55
21203;BME280;10759;51.982;9.232;2023-04-04T05:28:37;101692.97;;;-1.28;91.83
21203;BME280;10759;51.982;9.232;2023-04-04T05:31:06;101693.69;;;-1.34;92.33
21203;BME280;10759;51.982;9.232;2023-04-04T05:33:35;101683.72;;;-1.16;92.82
21203;BME280;10759;51.982;9.232;2023-04-04T05:36:10;101681.81;;;-1.21;92.26
21203;BME280;10759;51.982;9.232;2023-04-04T05:38:54;101688.16;;;-1.15;92.23
21203;BME280;10759;51.982;9.232;2023-04-04T05:41:27;101505.03;;;-1.99;92.06
21203;BME280;10759;51.982;9.232;2023-04-04T05:44:01;101699.72;;;-0.81;90.86
21203;BME280;10759;51.982;9.232;2023-04-04T05:46:29;101708.66;;;-0.74;91.45
21203;BME280;10759;51.982;9.232;2023-04-04T05:48:57;101706.25;;;-0.67;89.81
21203;BME280;10759;51.982;9.232;2023-04-04T05:51:25;101706.06;;;-0.43;90.54
21203;BME280;10759;51.982;9.232;2023-04-04T05:54:08;101693.34;;;-0.26;90.04
21203;BME280;10759;51.982;9.232;2023-04-04T05:56:37;101675.09;;;-0.18;88.79
21203;BME280;10759;51.982;9.232;2023-04-04T05:59:12;101687.28;;;0.10;88.63
21203;BME280;10759;51.982;9.232;2023-04-04T06:01:50;101692.16;;;0.30;88.13
21203;BME280;10759;51.982;9.232;2023-04-04T06:04:18;101712.06;;;0.53;87.71
21203;BME280;10759;51.982;9.232;2023-04-04T06:06:46;101689.09;;;0.49;86.09
21203;BME280;10759;51.982;9.232;2023-04-04T06:09:16;101716.63;;;0.60;85.13
21203;BME280;10759;51.982;9.232;2023-04-04T06:11:44;101683.81;;;0.48;85.26
21203;BME280;10759;51.982;9.232;2023-04-04T06:14:12;101714.19;;;0.68;85.05
21203;BME280;10759;51.982;9.232;2023-04-04T06:16:42;101711.13;;;0.88;84.63
21203;BME280;10759;51.982;9.232;2023-04-04T06:19:10;101716.91;;;1.11;84.20
21203;BME280;10759;51.982;9.232;2023-04-04T06:21:38;101720.81;;;1.28;83.69
21203;BME280;10759;51.982;9.232;2023-04-04T06:24:07;101697.22;;;1.36;82.79
21203;BME280;10759;51.982;9.232;2023-04-04T06:26:36;101726.78;;;1.62;81.02
21203;BME280;10759;51.982;9.232;2023-04-04T06:29:05;101733.13;;;1.70;81.39
21203;BME280;10759;51.982;9.232;2023-04-04T06:31:35;101733.78;;;1.60;80.55
21203;BME280;10759;51.982;9.232;2023-04-04T06:34:08;101734.31;;;1.86;79.46
21203;BME280;10759;51.982;9.232;2023-04-04T06:37:08;101738.91;;;1.95;78.66
21203;BME280;10759;51.982;9.232;2023-04-04T06:39:45;101735.47;;;2.02;78.86
21203;BME280;10759;51.982;9.232;2023-04-04T06:42:21;101742.84;;;2.18;78.85
21203;BME280;10759;51.982;9.232;2023-04-04T06:44:51;101744.69;;;2.24;79.51
21203;BME280;10759;51.982;9.232;2023-04-04T06:47:18;101723.38;;;2.13;79.08
21203;BME280;10759;51.982;9.232;2023-04-04T06:49:48;101746.94;;;2.51;78.01
21203;BME280;10759;51.982;9.232;2023-04-04T06:52:16;101746.72;;;2.39;76.00
21203;BME280;10759;51.982;9.232;2023-04-04T06:54:44;101739.78;;;2.44;76.73
21203;BME280;10759;51.982;9.232;2023-04-04T06:57:13;101740.53;;;2.36;78.99
21203;BME280;10759;51.982;9.232;2023-04-04T06:59:42;101745.63;;;2.24;80.34
21203;BME280;10759;51.982;9.232;2023-04-04T07:02:11;101726.44;;;1.87;81.33
21203;BME280;10759;51.982;9.232;2023-04-04T07:04:38;101741.56;;;1.95;81.53
21203;BME280;10759;51.982;9.232;2023-04-04T07:07:07;101725.50;;;1.87;82.06
21203;BME280;10759;51.982;9.232;2023-04-04T07:09:35;101732.59;;;1.88;80.39
21203;BME280;10759;51.982;9.232;2023-04-04T07:12:03;101743.72;;;2.19;81.02
21203;BME280;10759;51.982;9.232;2023-04-04T07:14:31;101747.44;;;1.81;80.62
21203;BME280;10759;51.982;9.232;2023-04-04T07:17:00;101745.50;;;2.18;83.23
21203;BME280;10759;51.982;9.232;2023-04-04T07:19:42;101747.34;;;2.22;81.56
21203;BME280;10759;51.982;9.232;2023-04-04T07:22:10;101739.66;;;2.38;80.59
21203;BME280;10759;51.982;9.232;2023-04-04T07:24:39;101737.25;;;2.51;79.13
21203;BME280;10759;51.982;9.232;2023-04-04T07:27:07;101737.78;;;2.85;78.67
21203;BME280;10759;51.982;9.232;2023-04-04T07:29:35;101735.19;;;2.88;77.68
21203;BME280;10759;51.982;9.232;2023-04-04T07:32:04;101726.63;;;3.06;76.58
21203;BME280;10759;51.982;9.232;2023-04-04T07:34:32;101730.69;;;3.45;74.49
21203;BME280;10759;51.982;9.232;2023-04-04T07:37:00;101733.59;;;3.65;72.43
21203;BME280;10759;51.982;9.232;2023-04-04T07:39:28;101741.63;;;3.73;73.11
21203;BME280;10759;51.982;9.232;2023-04-04T07:41:56;101735.66;;;3.92;68.99
21203;BME280;10759;51.982;9.232;2023-04-04T07:44:24;101731.16;;;3.85;70.15
21203;BME280;10759;51.982;9.232;2023-04-04T07:46:52;101670.69;;;3.53;65.89
21203;BME280;10759;51.982;9.232;2023-04-04T07:49:36;101734.13;;;4.14;65.96
21203;BME280;10759;51.982;9.232;2023-04-04T07:52:04;101732.63;;;4.44;66.16
21203;BME280;10759;51.982;9.232;2023-04-04T07:54:32;101725.56;;;4.46;63.59
21203;BME280;10759;51.982;9.232;2023-04-04T07:57:00;101737.28;;;4.71;63.90
21203;BME280;10759;51.982;9.232;2023-04-04T07:59:31;101721.31;;;4.72;68.68
21203;BME280;10759;51.982;9.232;2023-04-04T08:01:58;101726.69;;;4.77;61.34
21203;BME280;10759;51.982;9.232;2023-04-04T08:04:26;101719.78;;;5.07;62.94
21203;BME280;10759;51.982;9.232;2023-04-04T08:06:56;101723.53;;;5.46;62.72
21203;BME280;10759;51.982;9.232;2023-04-04T08:09:24;101670.31;;;5.33;59.10
21203;BME280;10759;51.982;9.232;2023-04-04T08:11:53;101715.44;;;5.21;58.80
21203;BME280;10759;51.982;9.232;2023-04-04T08:14:21;101717.94;;;4.90;56.42
21203;BME280;10759;51.982;9.232;2023-04-04T08:16:49;101710.97;;;5.14;58.67
21203;BME280;10759;51.982;9.232;2023-04-04T08:19:18;101719.97;;;5.44;55.02
21203;BME280;10759;51.982;9.232;2023-04-04T08:21:46;101718.31;;;5.70;55.05
21203;BME280;10759;51.982;9.232;2023-04-04T08:24:15;101713.94;;;5.89;54.36
21203;BME280;10759;51.982;9.232;2023-04-04T08:26:42;101712.91;;;5.43;54.39
21203;BME280;10759;51.982;9.232;2023-04-04T08:29:20;101722.84;;;5.91;53.86
21203;BME280;10759;51.982;9.232;2023-04-04T08:31:48;101725.47;;;5.84;49.10
21203;BME280;10759;51.982;9.232;2023-04-04T08:34:15;101710.91;;;5.00;48.02
21203;BME280;10759;51.982;9.232;2023-04-04T08:36:43;101711.97;;;5.27;48.87
21203;BME280;10759;51.982;9.232;2023-04-04T08:39:11;101712.84;;;5.36;48.38
21203;BME280;10759;51.982;9.232;2023-04-04T08:41:42;101719.94;;;5.31;48.73
21203;BME280;10759;51.982;9.232;2023-04-04T08:44:15;101713.81;;;5.48;48.43
21203;BME280;10759;51.982;9.232;2023-04-04T08:46:44;101693.47;;;5.59;48.04
21203;BME280;10759;51.982;9.232;2023-04-04T08:49:13;101710.47;;;6.01;46.49
21203;BME280;10759;51.982;9.232;2023-04-04T08:51:43;101611.78;;;5.18;46.96
21203;BME280;10759;51.982;9.232;2023-04-04T08:54:13;101711.28;;;5.78;46.33
21203;BME280;10759;51.982;9.232;2023-04-04T08:56:44;101700.59;;;5.72;46.59
21203;BME280;10759;51.982;9.232;2023-04-04T08:59:13;101713.94;;;5.78;46.35
21203;BME280;10759;51.982;9.232;2023-04-04T09:01:41;101611.84;;;5.33;47.11
21203;BME280;10759;51.982;9.232;2023-04-04T09:04:09;101704.75;;;5.09;47.31
21203;BME280;10759;51.982;9.232;2023-04-04T09:06:37;101704.00;;;5.36;46.79
21203;BME280;10759;51.982;9.232;2023-04-04T09:09:06;101704.19;;;5.79;47.13
21203;BME280;10759;51.982;9.232;2023-04-04T09:11:35;101701.47;;;5.67;47.82
21203;BME280;10759;51.982;9.232;2023-04-04T09:14:04;101706.72;;;5.45;47.37
21203;BME280;10759;51.982;9.232;2023-04-04T09:16:32;101702.31;;;5.61;46.53
21203;BME280;10759;51.982;9.232;2023-04-04T09:19:00;101694.28;;;5.40;45.66
21203;BME280;10759;51.982;9.232;2023-04-04T09:21:32;101699.47;;;5.13;45.14
21203;BME280;10759;51.982;9.232;2023-04-04T09:24:01;101697.09;;;5.84;48.94
21203;BME280;10759;51.982;9.232;2023-04-04T09:26:45;101697.03;;;5.67;45.18
21203;BME280;10759;51.982;9.232;2023-04-04T09:29:16;101634.78;;;5.10;45.37
21203;BME280;10759;51.982;9.232;2023-04-04T09:31:44;101696.91;;;5.36;46.28
21203;BME280;10759;51.982;9.232;2023-04-04T09:34:12;101670.31;;;5.24;46.83
21203;BME280;10759;51.982;9.232;2023-04-04T09:36:42;101699.63;;;5.47;46.89
21203;BME280;10759;51.982;9.232;2023-04-04T09:39:12;101698.78;;;5.62;46.28
21203;BME280;10759;51.982;9.232;2023-04-04T09:41:43;101696.22;;;5.88;46.98
21203;BME280;10759;51.982;9.232;2023-04-04T09:44:12;101695.31;;;5.85;45.03
21203;BME280;10759;51.982;9.232;2023-04-04T09:46:41;101674.97;;;5.94;46.44
21203;BME280;10759;51.982;9.232;2023-04-04T09:49:10;101691.69;;;5.52;46.40
21203;BME280;10759;51.982;9.232;2023-04-04T09:51:39;101686.38;;;5.56;45.34
21203;BME280;10759;51.982;9.232;2023-04-04T09:54:08;101690.06;;;5.97;45.34
21203;BME280;10759;51.982;9.232;2023-04-04T09:56:52;101684.56;;;5.51;45.41
21203;BME280;10759;51.982;9.232;2023-04-04T09:59:19;101672.00;;;5.13;45.41
21203;BME280;10759;51.982;9.232;2023-04-04T10:01:49;101680.22;;;5.74;46.83
21203;BME280;10759;51.982;9.232;2023-04-04T10:04:19;101683.78;;;5.86;46.88
21203;BME280;10759;51.982;9.232;2023-04-04T10:06:47;101674.88;;;5.73;45.19
21203;BME280;10759;51.982;9.232;2023-04-04T10:09:15;101661.66;;;6.02;45.96
21203;BME280;10759;51.982;9.232;2023-04-04T10:11:43;101675.84;;;5.99;45.57
21203;BME280;10759;51.982;9.232;2023-04-04T10:14:11;101677.63;;;6.02;43.98
21203;BME280;10759;51.982;9.232;2023-04-04T10:16:43;101666.13;;;6.54;44.92
21203;BME280;10759;51.982;9.232;2023-04-04T10:19:14;101663.41;;;6.64;45.56
21203;BME280;10759;51.982;9.232;2023-04-04T10:21:45;101675.88;;;6.27;44.75
21203;BME280;10759;51.982;9.232;2023-04-04T10:24:13;101668.78;;;6.34;44.66
21203;BME280;10759;51.982;9.232;2023-04-04T10:26:41;101666.13;;;6.26;44.60
21203;BME280;10759;51.982;9.232;2023-04-04T10:29:10;101674.09;;;6.09;45.16
21203;BME280;10759;51.982;9.232;2023-04-04T10:31:40;101667.00;;;6.60;45.91
21203;BME280;10759;51.982;9.232;2023-04-04T10:34:19;101668.69;;;5.85;43.69
21203;BME280;10759;51.982;9.232;2023-04-04T10:36:49;101660.78;;;6.54;46.98
21203;BME280;10759;51.982;9.232;2023-04-04T10:39:22;101644.81;;;6.34;43.04
21203;BME280;10759;51.982;9.232;2023-04-04T10:41:52;101661.69;;;6.16;44.16
21203;BME280;10759;51.982;9.232;2023-04-04T10:44:23;101654.59;;;6.01;44.24
21203;BME280;10759;51.982;9.232;2023-04-04T10:46:56;101631.50;;;6.43;44.05
21203;BME280;10759;51.982;9.232;2023-04-04T10:49:28;101634.06;;;7.00;43.48
21203;BME280;10759;51.982;9.232;2023-04-04T10:51:57;101643.78;;;7.05;43.75
21203;BME280;10759;51.982;9.232;2023-04-04T10:54:26;101626.97;;;6.83;43.06
21203;BME280;10759;51.982;9.232;2023-04-04T10:56:56;101630.63;;;6.50;40.53
21203;BME280;10759;51.982;9.232;2023-04-04T10:59:27;101633.25;;;6.59;41.72
21203;BME280;10759;51.982;9.232;2023-04-04T11:01:56;101627.06;;;6.45;42.17
21203;BME280;10759;51.982;9.232;2023-04-04T11:04:30;101625.19;;;6.85;42.26
21203;BME280;10759;51.982;9.232;2023-04-04T11:07:15;101618.88;;;7.13;43.38
21203;BME280;10759;51.982;9.232;2023-04-04T11:09:47;101609.03;;;7.36;42.51
21203;BME280;10759;51.982;9.232;2023-04-04T11:12:16;101572.88;;;6.68;41.74
21203;BME280;10759;51.982;9.232;2023-04-04T11:14:56;101611.91;;;6.78;40.53
21203;BME280;10759;51.982;9.232;2023-04-04T11:17:53;101602.06;;;7.00;38.81
21203;BME280;10759;51.982;9.232;2023-04-04T11:20:27;101602.88;;;7.16;38.56
21203;BME280;10759;51.982;9.232;2023-04-04T11:23:05;101608.25;;;7.09;38.25
21203;BME280;10759;51.982;9.232;2023-04-04T11:25:36;101579.97;;;6.65;38.51
21203;BME280;10759;51.982;9.232;2023-04-04T11:28:07;101599.41;;;6.89;40.82
21203;BME280;10759;51.982;9.232;2023-04-04T11:30:39;101597.59;;;7.03;41.42
21203;BME280;10759;51.982;9.232;2023-04-04T11:33:10;101560.34;;;6.88;40.04
21203;BME280;10759;51.982;9.232;2023-04-04T11:35:48;101547.22;;;6.10;40.99
21203;BME280;10759;51.982;9.232;2023-04-04T11:38:19;101552.50;;;6.42;40.61
21203;BME280;10759;51.982;9.232;2023-04-04T11:40:53;101577.25;;;6.87;41.65
21203;BME280;10759;51.982;9.232;2023-04-04T11:43:22;101568.38;;;6.79;39.78
21203;BME280;10759;51.982;9.232;2023-04-04T11:45:50;101581.81;;;6.45;40.44
21203;BME280;10759;51.982;9.232;2023-04-04T11:48:18;101577.31;;;6.61;39.70
21203;BME280;10759;51.982;9.232;2023-04-04T11:50:48;101568.28;;;7.00;38.54
21203;BME280;10759;51.982;9.232;2023-04-04T11:53:17;101571.00;;;6.94;39.02
21203;BME280;10759;51.982;9.232;2023-04-04T11:55:47;101568.44;;;6.54;40.46
21203;BME280;10759;51.982;9.232;2023-04-04T11:58:16;101565.53;;;7.22;40.66
21203;BME280;10759;51.982;9.232;2023-04-04T12:00:45;101549.66;;;6.97;40.78
21203;BME280;10759;51.982;9.232;2023-04-04T12:03:15;101519.44;;;7.00;41.62
21203;BME280;10759;51.982;9.232;2023-04-04T12:05:45;101535.31;;;7.24;42.61
21203;BME280;10759;51.982;9.232;2023-04-04T12:08:14;101544.94;;;7.45;43.59
21203;BME280;10759;51.982;9.232;2023-04-04T12:10:43;101535.00;;;7.69;42.05
21203;BME280;10759;51.982;9.232;2023-04-04T12:13:11;101544.41;;;6.76;43.35
21203;BME280;10759;51.982;9.232;2023-04-04T12:15:41;101535.47;;;6.92;43.82
21203;BME280;10759;51.982;9.232;2023-04-04T12:18:09;101535.56;;;6.61;42.63
21203;BME280;10759;51.982;9.232;2023-04-04T12:20:47;101540.66;;;7.20;42.38
21203;BME280;10759;51.982;9.232;2023-04-04T12:23:16;101532.44;;;7.53;39.62
21203;BME280;10759;51.982;9.232;2023-04-04T12:25:45;101536.09;;;7.37;41.74
21203;BME280;10759;51.982;9.232;2023-04-04T12:28:19;101534.28;;;7.41;40.87
21203;BME280;10759;51.982;9.232;2023-04-04T12:30:48;101530.81;;;7.28;40.52
21203;BME280;10759;51.982;9.232;2023-04-04T12:33:16;101535.44;;;6.98;42.07
21203;BME280;10759;51.982;9.232;2023-04-04T12:35:50;101533.63;;;7.06;41.61
21203;BME280;10759;51.982;9.232;2023-04-04T12:38:19;101526.31;;;7.39;40.82
21203;BME280;10759;51.982;9.232;2023-04-04T12:40:50;101488.97;;;7.39;40.17
21203;BME280;10759;51.982;9.232;2023-04-04T12:43:17;101520.88;;;7.55;39.55
21203;BME280;10759;51.982;9.232;2023-04-04T12:45:48;101497.09;;;7.22;40.48
21203;BME280;10759;51.982;9.232;2023-04-04T12:48:16;101514.75;;;7.40;41.19
21203;BME280;10759;51.982;9.232;2023-04-04T12:50:53;101506.00;;;7.21;41.05
21203;BME280;10759;51.982;9.232;2023-04-04T12:53:24;101505.00;;;7.36;38.41
21203;BME280;10759;51.982;9.232;2023-04-04T12:56:12;101500.41;;;7.57;38.32
21203;BME280;10759;51.982;9.232;2023-04-04T12:58:45;101494.94;;;7.72;38.13
21203;BME280;10759;51.982;9.232;2023-04-04T13:01:14;101500.25;;;7.78;38.37
21203;BME280;10759;51.982;9.232;2023-04-04T13:03:42;101489.75;;;7.53;38.99
21203;BME280;10759;51.982;9.232;2023-04-04T13:06:11;101480.25;;;7.13;40.68
21203;BME280;10759;51.982;9.232;2023-04-04T13:08:49;101474.81;;;7.31;38.16
21203;BME280;10759;51.982;9.232;2023-04-04T13:11:18;101487.03;;;7.60;39.34
21203;BME280;10759;51.982;9.232;2023-04-04T13:13:47;101462.19;;;7.55;40.56